Latest Weather Observations for Cessnock Airport

IDN60801

Issued at 6:02 pm EST Thursday 21 June 2018 (issued every 10 minutes, with the page automatically refreshed every 10 minutes)

About weather observations | Map of weather stations | Latest weather observations for NSW | Other Formats
Station Details ID: 061260 Name: CESSNOCK AIRPORT AWS Lat: -32.79 Lon: 151.34 Height: 61.0 m
Data from the previous 72 hours. | See also: Recent months at Cessnock Airport
Date/Time
EST
Temp
°C
App
Temp
°C
Dew
Point
°C
Rel
Hum
%
Delta-T
°C
Wind Press
QNH
hPa
Press
MSL
hPa
Rain since
9am
mm
Dir  Spd
km/h
Gust
km/h
Spd
kts
Gust
kts
21/05:30pm 12.8 12.1 11.4 91 0.7 S 6 7 3 4 1026.4 1026.4 0.0
21/05:00pm 13.5 12.3 11.6 88 1.0 S 9 11 5 6 1026.2 1026.2 0.0
21/04:30pm 14.6 13.4 11.6 82 1.6 SSE 9 11 5 6 1026.0 1026.0 0.0
21/04:00pm 15.1 13.8 11.3 78 2.0 SSE 9 11 5 6 1025.9 1025.9 0.0
21/03:30pm 15.1 13.8 11.3 78 2.0 S 9 13 5 7 1025.8 1025.8 0.0
21/03:00pm 15.6 14.9 9.9 69 3.0 NW 4 6 2 3 1025.8 1025.8 0.0
21/02:30pm 15.8 14.5 9.9 68 3.1 WNW 7 9 4 5 1025.8 1025.8 0.0
21/02:00pm 16.1 14.1 10.2 68 3.1 N 11 15 6 8 1025.7 1025.7 0.0
21/01:30pm 16.2 14.9 10.1 67 3.2 N 7 13 4 7 1026.0 1026.0 0.0
21/01:00pm 16.2 14.9 9.8 66 3.3 NNE 7 15 4 8 1026.3 1026.3 0.0
21/12:30pm 15.9 14.6 10.0 68 3.1 NE 7 11 4 6 1026.6 1026.6 0.0
21/12:00pm 15.5 14.1 10.9 74 2.4 N 9 13 5 7 1026.9 1026.9 0.0
21/11:30am 15.1 14.4 9.9 71 2.7 NW 4 11 2 6 1027.3 1027.3 0.0
21/11:00am 15.2 13.9 9.3 68 3.0 W 6 9 3 5 1027.7 1027.7 0.0
21/10:30am 14.7 13.2 9.3 70 2.8 WSW 7 13 4 7 1027.8 1027.8 0.0
21/10:00am 14.6 13.6 10.4 76 2.2 WSW 6 9 3 5 1028.1 1028.1 0.0
21/09:30am 13.6 12.1 10.4 81 1.7 SW 9 17 5 9 1028.1 1028.1 0.0
21/09:00am 12.7 11.7 10.2 85 1.3 W 6 9 3 5 1028.0 1028.0 0.0
21/08:30am 12.1 11.0 9.8 86 1.2 SW 6 9 3 5 1027.7 1027.7 0.0
21/08:00am 11.7 11.7 9.9 89 0.9 CALM 0 6 0 3 1027.6 1027.6 0.0
21/07:30am 10.9 9.8 9.8 93 0.6 SW 6 7 3 4 1027.3 1027.3 0.0
21/07:00am 10.8 10.8 9.9 94 0.5 CALM 0 0 0 0 1026.9 1026.9 0.0
21/06:30am 10.7 10.7 9.8 94 0.5 CALM 0 0 0 0 1026.7 1026.7 0.0
21/06:00am 10.6 10.6 9.7 94 0.5 CALM 0 0 0 0 1026.4 1026.4 0.0
21/05:30am 10.6 9.8 9.7 94 0.5 NNE 4 7 2 4 1026.1 1026.1 0.0
21/05:00am 10.6 9.4 9.7 94 0.5 NE 6 7 3 4 1025.8 1025.8 0.0
21/04:30am 10.7 9.9 9.8 94 0.5 N 4 6 2 3 1025.8 1025.8 0.0
21/04:00am 10.7 9.9 9.6 93 0.6 S 4 6 2 3 1025.8 1025.8 0.0
21/03:30am 10.7 9.5 9.6 93 0.6 NW 6 9 3 5 1025.7 1025.7 0.0
21/03:00am 10.7 9.9 9.6 93 0.6 NNE 4 9 2 5 1025.8 1025.8 0.0
21/02:30am 10.8 10.0 9.7 93 0.6 WNW 4 7 2 4 1026.0 1026.0 0.0
21/02:00am 10.5 10.4 9.4 93 0.5 CALM 0 0 0 0 1026.1 1026.1 0.0
21/01:30am 10.5 10.4 9.6 94 0.5 CALM 0 0 0 0 1026.2 1026.2 0.0
21/01:00am 10.3 10.1 9.2 93 0.5 CALM 0 0 0 0 1026.3 1026.3 0.0
21/12:30am 10.3 10.1 9.2 93 0.5 CALM 0 0 0 0 1026.3 1026.3 0.0
21/12:00am 9.8 9.5 8.6 92 0.6 CALM 0 0 0 0 1026.4 1026.4 0.0
 
Date/Time
EST
Temp
°C
App
Temp
°C
Dew
Point
°C
Rel
Hum
%
Delta-T
°C
Wind Press
QNH
hPa
Press
MSL
hPa
Rain since
9am
mm
Dir  Spd
km/h
Gust
km/h
Spd
kts
Gust
kts
20/11:30pm 10.4 10.2 9.0 91 0.7 CALM 0 0 0 0 1026.5 1026.5 0.0
20/11:00pm 10.4 10.2 9.0 91 0.7 CALM 0 0 0 0 1026.6 1026.6 0.0
20/10:30pm 10.5 10.4 9.3 92 0.6 CALM 0 0 0 0 1027.0 1027.0 0.0
20/10:00pm 10.5 10.3 9.1 91 0.7 CALM 0 0 0 0 1027.1 1027.1 0.0
20/09:30pm 10.5 10.3 9.1 91 0.7 CALM 0 0 0 0 1027.2 1027.2 0.0
20/09:00pm 9.8 9.4 8.2 90 0.8 CALM 0 6 0 3 1027.0 1027.0 0.0
20/08:30pm 10.2 8.2 8.5 89 0.8 SW 9 11 5 6 1027.0 1027.0 0.0
20/08:00pm 9.7 7.7 8.6 93 0.5 SW 9 13 5 7 1026.8 1026.8 0.0
20/07:30pm 8.7 6.7 7.3 91 0.7 WSW 7 11 4 6 1026.7 1026.7 0.0
20/07:00pm 9.6 8.0 8.2 91 0.7 WNW 6 7 3 4 1026.7 1026.7 0.0
20/06:30pm 10.4 8.7 8.2 86 1.1 WSW 7 11 4 6 1026.2 1026.2 0.0
20/06:00pm 11.1 9.6 8.5 84 1.3 SW 6 11 3 6 1026.1 1026.1 0.0
20/05:30pm 12.3 10.6 8.2 76 2.0 SW 7 9 4 5 1025.7 1025.7 0.0
20/05:00pm 13.8 11.7 8.2 69 2.8 SSW 9 11 5 6 1025.6 1025.6 0.0
20/04:30pm 15.1 12.6 8.1 63 3.5 S 11 15 6 8 1025.5 1025.5 0.0
20/04:00pm 16.7 13.5 8.4 58 4.2 SSE 15 19 8 10 1025.1 1025.1 0.0
20/03:30pm 16.9 12.9 8.1 56 4.5 SSE 19 24 10 13 1024.8 1024.8 0.0
20/03:00pm 16.5 12.7 9.0 61 3.9 SSE 19 24 10 13 1024.8 1024.8 0.0
20/02:30pm 17.2 14.0 8.4 56 4.5 SSE 15 20 8 11 1024.6 1024.6 0.0
20/02:00pm 16.4 13.5 9.6 64 3.5 SSW 15 22 8 12 1024.6 1024.6 0.0
20/01:30pm 16.5 12.8 9.4 63 3.7 S 19 26 10 14 1024.7 1024.7 0.0
20/01:00pm 15.8 11.9 9.5 66 3.3 SSE 20 30 11 16 1024.8 1024.8 0.0
20/12:30pm 16.6 14.2 10.2 66 3.4 SSW 13 20 7 11 1025.0 1025.0 0.0
20/12:00pm 15.9 12.7 10.0 68 3.1 SW 17 24 9 13 1025.4 1025.4 0.0
20/11:30am 15.3 11.7 9.9 70 2.8 SSW 19 28 10 15 1025.9 1025.9 0.0
20/11:00am 16.0 13.0 10.5 70 2.9 SSW 17 24 9 13 1026.2 1026.2 0.0
20/10:30am 15.7 12.7 10.5 71 2.8 SSW 17 22 9 12 1026.3 1026.3 0.0
20/10:00am 15.1 12.9 10.7 75 2.3 SSW 13 20 7 11 1026.3 1026.3 0.0
20/09:30am 14.5 11.7 10.1 75 2.3 SSW 15 20 8 11 1026.4 1026.4 0.0
20/09:00am 14.1 13.0 10.5 79 1.9 SSW 7 11 4 6 1026.8 1026.8 20.6
20/08:30am 12.9 10.3 9.4 79 1.8 SW 13 17 7 9 1026.9 1026.9 20.6
20/08:00am 12.7 10.6 9.7 82 1.5 SSW 11 15 6 8 1026.6 1026.6 20.6
20/07:30am 11.0 8.6 8.6 85 1.2 SSW 11 15 6 8 1026.5 1026.5 20.6
20/07:00am 11.1 9.1 8.5 84 1.3 SSW 9 15 5 8 1026.2 1026.2 20.6
20/06:30am 11.5 9.3 9.2 86 1.2 SSW 11 17 6 9 1025.9 1025.9 20.6
20/06:00am 11.5 9.4 9.8 89 0.9 SSW 11 17 6 9 1025.6 1025.6 20.6
20/05:30am 11.8 8.6 9.9 88 1.0 SSW 17 22 9 12 1025.6 1025.6 20.6
20/05:00am 11.6 8.3 9.5 87 1.1 SSW 17 24 9 13 1025.2 1025.2 20.6
20/04:30am 11.3 8.7 9.4 88 1.0 SSW 13 24 7 13 1024.9 1024.9 20.6
20/04:00am 11.4 8.0 9.3 87 1.0 SSW 17 24 9 13 1024.7 1024.7 20.6
20/03:30am 11.5 8.3 9.8 89 0.9 SW 17 22 9 12 1024.5 1024.5 20.6
20/03:00am 11.4 8.6 10.1 92 0.7 SW 15 22 8 12 1024.7 1024.7 20.6
20/02:30am 11.2 9.9 9.8 91 0.7 SSE 7 11 4 6 1024.6 1024.6 20.2
20/02:00am 11.3 9.6 9.7 90 0.8 SSW 9 13 5 7 1024.5 1024.5 19.8
20/01:30am 11.2 8.7 9.6 90 0.8 SW 13 22 7 12 1024.2 1024.2 19.8
20/01:00am 11.3 9.5 9.4 88 1.0 SSW 9 15 5 8 1024.1 1024.1 19.6
20/12:30am 11.3 8.3 9.4 88 1.0 SW 15 22 8 12 1023.8 1023.8 19.6
20/12:00am 11.3 8.8 9.6 89 0.9 SSW 13 22 7 12 1024.0 1024.0 19.4
 
Date/Time
EST
Temp
°C
App
Temp
°C
Dew
Point
°C
Rel
Hum
%
Delta-T
°C
Wind Press
QNH
hPa
Press
MSL
hPa
Rain since
9am
mm
Dir  Spd
km/h
Gust
km/h
Spd
kts
Gust
kts
19/11:30pm 11.4 8.9 9.8 90 0.8 SSW 13 20 7 11 1024.1 1024.1 19.0
19/11:00pm 11.1 8.5 9.5 90 0.8 SW 13 24 7 13 1023.7 1023.7 18.4
19/10:30pm 11.0 8.9 9.8 92 0.6 SSW 11 24 6 13 1023.7 1023.7 18.2
19/10:00pm 10.7 8.5 9.5 92 0.6 SW 11 15 6 8 1024.0 1024.0 17.6
19/09:30pm 10.8 8.6 9.4 91 0.7 SSW 11 19 6 10 1023.6 1023.6 16.6
19/09:00pm 11.0 8.9 9.6 91 0.7 SSW 11 19 6 10 1023.5 1023.5 16.2
19/08:30pm 10.9 8.3 9.5 91 0.7 SSW 13 19 7 10 1023.7 1023.7 15.2
19/08:00pm 11.1 7.4 9.4 89 0.9 SSW 19 28 10 15 1023.5 1023.5 14.2
19/07:30pm 11.6 8.1 8.6 82 1.5 SSW 17 26 9 14 1023.0 1023.0 13.2
19/07:00pm 11.6 8.2 9.0 84 1.3 SW 17 24 9 13 1022.8 1022.8 13.2
19/06:30pm 11.3 8.7 9.2 87 1.1 SSW 13 20 7 11 1022.8 1022.8 13.2
19/06:00pm 11.4 7.6 9.7 89 0.9 SW 20 30 11 16 1022.1 1022.2 12.8
19/05:30pm 11.3 8.0 9.7 90 0.8 SW 17 26 9 14 1021.9 1022.0 11.4
19/05:00pm 11.5 8.1 9.2 86 1.2 S 17 22 9 12 1021.5 1021.6 9.4
19/04:30pm 12.0 9.3 9.0 82 1.5 SSW 13 20 7 11 1020.9 1021.0 8.6
19/04:00pm 12.0 8.9 9.0 82 1.5 SSW 15 26 8 14 1021.1 1021.2 8.4
19/03:30pm 13.5 10.3 8.6 72 2.5 SSW 15 22 8 12 1020.7 1020.8 7.4
19/03:00pm 13.2 9.0 8.3 72 2.4 SSW 20 35 11 19 1020.4 1020.5 7.4
19/02:30pm 13.7 8.1 8.7 72 2.5 SSW 28 46 15 25 1020.3 1020.4 7.4
19/02:29pm 13.6 7.9 8.4 71 2.6 SSW 28 46 15 25 1020.3 1020.4 7.4
19/02:00pm 14.6 10.5 8.8 68 2.9 SSW 20 35 11 19 1020.2 1020.3 7.4
19/01:30pm 13.5 8.8 9.2 75 2.2 SSW 24 35 13 19 1020.2 1020.3 7.4
19/01:00pm 13.4 8.8 9.8 79 1.8 SW 24 37 13 20 1020.4 1020.5 7.2
19/12:30pm 11.7 8.0 9.6 87 1.1 SW 19 28 10 15 1020.3 1020.4 7.2
19/12:00pm 11.7 8.3 9.3 85 1.2 SW 17 24 9 13 1021.1 1021.2 6.4
19/11:30am 10.9 9.7 9.7 92 0.6 W 6 13 3 7 1021.5 1021.6 6.0
19/11:00am 10.0 8.3 8.4 90 0.8 SSW 7 13 4 7 1022.7 1022.7 4.4
19/10:30am 9.9 7.9 8.5 91 0.7 SSW 9 11 5 6 1022.0 1022.1 2.8
19/10:00am 9.9 5.9 8.2 89 0.8 SSW 19 28 10 15 1022.0 1022.1 1.4
19/09:30am 10.1 6.0 7.7 85 1.2 SW 19 30 10 16 1021.0 1021.1 0.2
19/09:00am 9.7 5.3 7.6 87 1.0 SW 20 32 11 17 1020.5 1020.6 2.4
19/08:30am 9.5 5.1 7.4 87 1.0 SSW 20 35 11 19 1020.6 1020.7 1.6
19/08:00am 9.4 5.0 7.3 87 1.0 SW 20 33 11 18 1020.0 1020.1 1.2
19/07:30am 8.9 5.0 6.9 87 0.9 SSW 17 24 9 13 1019.9 1020.0 0.8
19/07:00am 9.4 5.3 6.3 81 1.4 SSW 17 28 9 15 1019.4 1019.5 0.0
19/06:30am 9.5 4.8 5.9 78 1.7 SSW 20 32 11 17 1019.0 1019.1 0.0
19/06:00am 10.6 5.6 4.5 66 2.7 SW 20 32 11 17 1018.6 1018.7 0.0
19/05:30am 11.0 6.4 3.5 60 3.3 SW 17 30 9 16 1018.4 1018.5 0.0
19/05:00am 10.7 5.6 3.3 60 3.2 SW 19 30 10 16 1018.2 1018.3 0.0
19/04:30am 11.1 6.3 2.7 56 3.6 SW 17 26 9 14 1018.6 1018.7 0.0
19/04:00am 10.7 5.9 2.5 57 3.5 SW 17 30 9 16 1018.6 1018.7 0.0
19/03:30am 10.7 5.9 2.5 57 3.5 SW 17 28 9 15 1018.7 1018.8 0.0
19/03:00am 10.9 5.5 2.7 57 3.5 SW 20 35 11 19 1018.8 1018.9 0.0
19/02:30am 11.0 5.9 2.8 57 3.6 SW 19 28 10 15 1019.0 1019.1 0.0
19/02:00am 11.0 5.9 3.3 59 3.4 SW 19 30 10 16 1018.9 1019.0 0.0
19/01:30am 10.6 6.4 3.9 63 3.0 SSW 15 28 8 15 1019.1 1019.2 0.0
19/01:00am 10.7 6.6 4.2 64 2.9 SW 15 24 8 13 1019.0 1019.1 0.0
19/12:30am 10.5 6.1 4.9 68 2.5 SW 17 24 9 13 1019.2 1019.3 0.0
19/12:00am 10.4 6.7 4.5 67 2.6 SW 13 20 7 11 1019.3 1019.4 0.0
 
Date/Time
EST
Temp
°C
App
Temp
°C
Dew
Point
°C
Rel
Hum
%
Delta-T
°C
Wind Press
QNH
hPa
Press
MSL
hPa
Rain since
9am
mm
Dir  Spd
km/h
Gust
km/h
Spd
kts
Gust
kts
18/11:30pm 10.2 7.0 5.0 70 2.4 SSW 11 19 6 10 1019.4 1019.5 0.0
18/11:00pm 11.0 7.0 5.1 67 2.7 SW 15 26 8 14 1019.4 1019.5 0.0
18/10:30pm 11.6 6.4 5.3 65 2.9 SW 22 30 12 16 1019.3 1019.4 0.0
18/10:00pm 11.9 7.0 5.3 64 3.0 SW 20 35 11 19 1019.5 1019.6 0.0
18/09:30pm 12.9 8.1 5.6 61 3.4 SW 20 39 11 21 1019.3 1019.4 0.0
18/09:00pm 12.4 9.3 7.1 70 2.6 SSW 13 15 7 8 1019.5 1019.6 0.0
18/08:30pm 11.6 9.6 7.1 74 2.2 SSW 7 15 4 8 1019.2 1019.3 0.0
18/08:00pm 11.4 10.3 7.1 75 2.1 SSE 2 6 1 3 1018.8 1018.9 0.0
18/07:30pm 11.8 9.3 6.5 70 2.5 SE 9 15 5 8 1018.5 1018.6 0.0
18/07:00pm 12.0 9.4 5.9 66 2.9 SE 9 13 5 7 1017.9 1018.0 0.0
18/06:30pm 14.1 11.5 4.4 52 4.5 SW 7 11 4 6 1017.5 1017.6 0.0

Other Formats:

Comma delimited format used in spreadsheet applications
http://www.bom.gov.au/fwo/IDN60801/IDN60801.95771.axf

JavaScript Object Notation format (JSON) in row-major order
http://www.bom.gov.au/fwo/IDN60801/IDN60801.95771.json